Time;durP1;ratioP1;P1;durP2;ratioP2;P2;SDS_P1;SDS_P2;PMS_P1;PMS_P2;Temp;Humidity;BMP_temperature;BMP_pressure;BME280_temperature;BME280_humidity;BME280_pressure;Samples;Min_cycle;Max_cycle;Signal;HPM_P1;HPM_P2
2023/09/23 00:00:56;;;;;;;13.00;8.55;;;20.60;67.20;;;;;;5019154;28;20114;-58
2023/09/23 00:03:23;;;;;;;10.85;8.45;;;20.60;67.30;;;;;;5018689;28;20026;-58
2023/09/23 00:05:52;;;;;;;13.02;8.38;;;20.60;67.30;;;;;;5018715;28;20029;-57
2023/09/23 00:08:18;;;;;;;12.50;8.55;;;20.50;67.50;;;;;;5018431;28;20496;-58
2023/09/23 00:10:50;;;;;;;10.23;7.97;;;20.60;67.60;;;;;;5018319;28;20109;-58
2023/09/23 00:13:17;;;;;;;11.80;8.45;;;20.50;67.80;;;;;;5018114;28;20438;-58
2023/09/23 00:15:43;;;;;;;11.57;8.77;;;20.50;67.90;;;;;;5018248;28;20029;-58
2023/09/23 00:18:09;;;;;;;12.15;8.52;;;20.50;68.00;;;;;;5017720;28;20037;-58
2023/09/23 00:20:38;;;;;;;15.82;8.73;;;20.50;68.20;;;;;;5017442;28;20049;-57
2023/09/23 00:23:05;;;;;;;11.52;8.50;;;20.50;68.20;;;;;;5000178;28;20029;-57
2023/09/23 00:25:33;;;;;;;11.40;8.23;;;20.50;68.50;;;;;;5017797;28;20033;-58
2023/09/23 00:27:58;;;;;;;17.55;8.93;;;20.50;68.40;;;;;;5018040;28;20038;-57
2023/09/23 00:30:26;;;;;;;12.75;7.97;;;20.40;68.40;;;;;;5017122;28;20420;-58
2023/09/23 00:32:52;;;;;;;10.15;7.38;;;20.40;68.50;;;;;;5018193;28;20033;-55
2023/09/23 00:35:18;;;;;;;11.25;8.20;;;20.40;68.70;;;;;;5017781;28;20088;-58
2023/09/23 00:37:48;;;;;;;14.05;8.23;;;20.40;68.80;;;;;;5017481;28;20030;-58
2023/09/23 00:40:20;;;;;;;11.27;7.60;;;20.40;69.10;;;;;;5017634;28;20030;-58
2023/09/23 00:42:48;;;;;;;12.48;8.75;;;20.40;69.10;;;;;;5017770;28;20030;-57
2023/09/23 00:45:19;;;;;;;12.02;8.55;;;20.40;69.10;;;;;;5000200;28;20478;-59
2023/09/23 00:47:46;;;;;;;11.75;8.05;;;20.30;69.70;;;;;;5017690;28;20053;-58
2023/09/23 00:50:19;;;;;;;12.10;8.63;;;20.30;69.90;;;;;;5017696;28;20036;-57
2023/09/23 00:52:48;;;;;;;11.82;8.38;;;20.20;69.80;;;;;;5018134;28;20034;-58
2023/09/23 00:55:16;;;;;;;14.90;8.98;;;20.20;70.10;;;;;;5017598;28;20115;-59
2023/09/23 00:57:45;;;;;;;17.30;8.98;;;20.20;70.10;;;;;;5018170;28;20022;-58
2023/09/23 01:00:23;;;;;;;17.20;8.40;;;20.20;70.20;;;;;;5017494;28;20026;-58
2023/09/23 01:02:49;;;;;;;15.15;8.82;;;20.20;70.30;;;;;;5017484;28;20034;-58
2023/09/23 01:05:16;;;;;;;13.60;8.90;;;20.20;70.40;;;;;;5017879;28;20033;-58
2023/09/23 01:07:42;;;;;;;12.88;8.82;;;20.20;70.50;;;;;;5018122;28;20026;-58
2023/09/23 01:10:08;;;;;;;11.68;8.52;;;20.20;70.60;;;;;;5017739;28;20041;-56
2023/09/23 01:12:34;;;;;;;12.98;8.40;;;20.20;70.80;;;;;;5017977;28;20034;-59
2023/09/23 01:15:17;;;;;;;10.88;8.65;;;20.20;70.90;;;;;;5017233;28;20049;-58
2023/09/23 01:17:44;;;;;;;10.30;8.75;;;20.20;71.00;;;;;;5017424;28;20179;-57
2023/09/23 01:20:13;;;;;;;11.45;8.52;;;20.20;71.10;;;;;;5017904;28;20054;-59
2023/09/23 01:22:39;;;;;;;10.27;8.50;;;20.30;71.20;;;;;;5016812;28;20387;-58
2023/09/23 01:25:06;;;;;;;13.60;9.05;;;20.30;71.30;;;;;;5016830;28;20129;-59
2023/09/23 01:27:34;;;;;;;11.57;8.60;;;20.20;71.30;;;;;;5016871;28;20382;-58
2023/09/23 01:30:06;;;;;;;13.07;8.02;;;20.20;71.40;;;;;;5017527;28;20034;-56
2023/09/23 01:32:49;;;;;;;11.98;8.77;;;20.20;71.50;;;;;;5017001;28;20026;-59
2023/09/23 01:35:20;;;;;;;12.75;9.10;;;20.20;71.70;;;;;;5016821;28;20025;-59
2023/09/23 01:37:46;;;;;;;14.00;9.05;;;20.20;71.80;;;;;;5016674;28;20030;-57
2023/09/23 01:40:18;;;;;;;14.60;9.63;;;20.20;71.90;;;;;;5016576;28;20065;-57
2023/09/23 01:42:53;;;;;;;11.75;9.05;;;20.20;72.20;;;;;;5017004;28;20117;-58
2023/09/23 01:45:19;;;;;;;11.80;8.90;;;20.20;72.50;;;;;;4999204;28;20385;-58
2023/09/23 01:47:46;;;;;;;12.55;8.95;;;20.10;72.80;;;;;;5016697;28;20096;-58
2023/09/23 01:50:13;;;;;;;12.63;9.15;;;20.10;73.10;;;;;;5017042;28;20056;-58
2023/09/23 01:52:40;;;;;;;11.70;8.50;;;20.10;73.80;;;;;;5016903;28;20033;-59
2023/09/23 01:55:09;;;;;;;12.25;8.73;;;20.10;74.20;;;;;;5016868;28;20026;-59
2023/09/23 01:57:34;;;;;;;13.80;8.95;;;20.10;74.50;;;;;;5016627;28;20026;-58
2023/09/23 02:00:01;;;;;;;13.82;10.18;;;20.10;74.80;;;;;;5016352;28;20041;-58
2023/09/23 02:02:27;;;;;;;14.63;9.52;;;20.10;75.00;;;;;;5016848;28;20026;-58
2023/09/23 02:04:53;;;;;;;17.20;9.30;;;20.10;75.30;;;;;;5017054;28;20474;-58
2023/09/23 02:07:19;;;;;;;15.75;9.10;;;20.20;75.40;;;;;;5016781;28;20498;-58
2023/09/23 02:09:45;;;;;;;10.85;9.15;;;20.10;75.50;;;;;;5016646;28;20076;-58
2023/09/23 02:12:12;;;;;;;13.43;8.90;;;20.10;75.50;;;;;;5016962;28;20042;-58
2023/09/23 02:14:42;;;;;;;14.88;8.95;;;20.10;75.50;;;;;;5016950;28;20393;-57
2023/09/23 02:17:08;;;;;;;11.80;8.10;;;20.10;75.50;;;;;;5017125;28;20092;-58
2023/09/23 02:19:34;;;;;;;10.57;8.70;;;20.10;75.40;;;;;;5016768;28;20046;-58
2023/09/23 02:22:05;;;;;;;14.13;8.15;;;20.10;75.40;;;;;;5017029;28;20021;-58
2023/09/23 02:24:36;;;;;;;;;;;20.10;75.40;;;;;;5017816;28;20025;-58
2023/09/23 02:27:03;;;;;;;15.05;9.15;;;20.00;74.80;;;;;;5019478;28;19909;-58
2023/09/23 02:29:30;;;;;;;16.42;8.55;;;20.00;75.30;;;;;;5020725;28;20473;-58
2023/09/23 02:31:56;;;;;;;11.00;8.80;;;20.00;75.40;;;;;;5020664;28;20167;-57
2023/09/23 02:34:22;;;;;;;14.23;8.43;;;20.10;75.50;;;;;;5014305;28;20414;-58
2023/09/23 02:36:51;;;;;;;15.20;8.48;;;20.10;75.50;;;;;;4999248;28;20835;-56
2023/09/23 02:39:20;;;;;;;13.25;8.85;;;20.10;75.50;;;;;;4998688;28;20105;-57
2023/09/23 02:41:46;;;;;;;10.40;8.85;;;20.10;75.50;;;;;;5000639;28;20030;-57
2023/09/23 02:44:18;;;;;;;11.57;8.77;;;20.10;75.40;;;;;;5000014;28;20033;-58
2023/09/23 02:46:47;;;;;;;11.48;9.45;;;20.10;75.40;;;;;;4999420;28;20534;-58
2023/09/23 02:49:13;;;;;;;11.55;8.85;;;20.10;75.40;;;;;;5000138;28;20030;-58
2023/09/23 02:51:41;;;;;;;17.50;8.82;;;20.10;75.70;;;;;;4999900;28;20023;-58
2023/09/23 02:54:08;;;;;;;10.38;9.27;;;20.10;75.80;;;;;;5000291;28;20030;-58
2023/09/23 02:56:34;;;;;;;12.68;9.43;;;20.10;76.00;;;;;;5000204;28;20090;-59
2023/09/23 02:59:04;;;;;;;48.00;11.98;;;20.00;76.10;;;;;;5012699;28;20073;-58
2023/09/23 03:01:30;;;;;;;13.27;9.48;;;20.00;76.30;;;;;;5019706;28;20026;-57
2023/09/23 03:03:56;;;;;;;12.38;8.90;;;20.00;76.70;;;;;;5019802;28;20470;-58
2023/09/23 03:06:25;;;;;;;12.98;8.73;;;20.00;77.20;;;;;;5020094;28;20030;-58
2023/09/23 03:08:54;;;;;;;10.95;8.93;;;20.00;77.50;;;;;;5018862;28;20037;-58
2023/09/23 03:11:20;;;;;;;11.88;9.55;;;20.00;77.70;;;;;;5019701;28;20030;-58
2023/09/23 03:13:46;;;;;;;11.43;8.93;;;20.00;77.90;;;;;;5019251;28;20026;-58
2023/09/23 03:16:14;;;;;;;14.15;9.20;;;20.00;78.10;;;;;;5019654;28;20053;-58
2023/09/23 03:18:59;;;;;;;11.10;9.65;;;20.00;78.00;;;;;;5019860;28;20030;-58
2023/09/23 03:21:25;;;;;;;10.15;8.82;;;20.00;78.00;;;;;;5019810;28;20034;-58
2023/09/23 03:23:51;;;;;;;11.57;9.48;;;20.00;78.00;;;;;;5019384;28;20088;-57
2023/09/23 03:26:19;;;;;;;15.32;9.52;;;20.00;78.00;;;;;;5019381;28;20037;-57
2023/09/23 03:28:46;;;;;;;12.48;9.68;;;20.00;77.90;;;;;;5019157;28;20022;-58
2023/09/23 03:31:14;;;;;;;16.00;8.85;;;20.00;77.70;;;;;;5018988;28;20053;-58
2023/09/23 03:33:41;;;;;;;14.02;8.80;;;20.00;77.50;;;;;;5019340;28;20037;-58
2023/09/23 03:36:14;;;;;;;10.43;8.73;;;20.00;77.50;;;;;;5019659;28;20109;-58
2023/09/23 03:38:39;;;;;;;14.50;9.20;;;20.00;77.70;;;;;;5018436;28;20053;-58
2023/09/23 03:41:05;;;;;;;12.45;8.65;;;20.00;77.80;;;;;;5018855;28;20026;-58
2023/09/23 03:43:31;;;;;;;11.32;8.77;;;20.00;78.20;;;;;;5018655;28;20033;-58
2023/09/23 03:45:56;;;;;;;10.55;8.30;;;20.00;78.60;;;;;;5018620;28;20056;-58
2023/09/23 03:48:22;;;;;;;12.05;8.52;;;20.00;78.70;;;;;;5018632;28;20109;-58
2023/09/23 03:50:54;;;;;;;11.93;8.77;;;20.00;79.00;;;;;;5018689;28;20038;-58
2023/09/23 03:53:21;;;;;;;13.85;9.20;;;20.00;79.20;;;;;;5018835;28;20044;-58
2023/09/23 03:55:49;;;;;;;11.82;9.70;;;20.00;79.60;;;;;;5018276;28;20030;-58
2023/09/23 03:58:17;;;;;;;13.18;9.07;;;20.10;79.90;;;;;;5018272;28;20502;-59
2023/09/23 04:00:44;;;;;;;14.75;9.13;;;20.10;80.00;;;;;;5018524;28;20034;-58
2023/09/23 04:03:10;;;;;;;13.50;9.13;;;20.10;80.40;;;;;;5018199;28;20040;-58
2023/09/23 04:05:36;;;;;;;12.15;9.27;;;20.10;80.40;;;;;;5018506;28;20018;-58
2023/09/23 04:08:02;;;;;;;11.73;8.30;;;20.20;80.70;;;;;;5017963;28;20080;-58
2023/09/23 04:10:28;;;;;;;12.73;8.85;;;20.10;80.50;;;;;;5018226;28;20560;-58
2023/09/23 04:12:54;;;;;;;9.75;8.45;;;20.20;80.80;;;;;;5018113;28;20480;-58
2023/09/23 04:15:24;;;;;;;10.23;8.57;;;20.20;80.80;;;;;;5017986;28;20026;-57
2023/09/23 04:17:50;;;;;;;13.10;8.88;;;20.30;80.90;;;;;;5018483;28;20022;-58
2023/09/23 04:20:15;;;;;;;12.02;8.60;;;20.30;81.00;;;;;;5017987;28;20026;-59
2023/09/23 04:22:42;;;;;;;11.35;8.80;;;20.30;81.50;;;;;;5018341;28;20030;-58
2023/09/23 04:25:08;;;;;;;12.50;9.15;;;20.30;81.00;;;;;;5017725;28;20118;-58
2023/09/23 04:27:38;;;;;;;12.43;9.13;;;20.30;81.00;;;;;;5017779;28;20076;-58
2023/09/23 04:30:11;;;;;;;10.50;8.90;;;20.40;81.00;;;;;;5018076;28;20041;-58
2023/09/23 04:32:40;;;;;;;13.05;9.40;;;20.40;81.00;;;;;;5018335;28;20025;-57
2023/09/23 04:35:07;;;;;;;11.73;9.18;;;20.40;81.00;;;;;;5018432;28;20529;-58
2023/09/23 04:37:37;;;;;;;13.48;9.60;;;20.40;80.90;;;;;;5016921;28;20490;-58
2023/09/23 04:40:06;;;;;;;13.70;9.32;;;20.40;81.00;;;;;;5017653;28;20056;-58
2023/09/23 04:42:32;;;;;;;13.13;9.40;;;20.40;81.00;;;;;;5017823;28;20052;-57
2023/09/23 04:44:58;;;;;;;12.32;8.60;;;20.40;80.90;;;;;;5018181;28;20153;-59
2023/09/23 04:47:23;;;;;;;12.23;8.93;;;20.40;81.00;;;;;;5018419;28;20026;-57
2023/09/23 04:49:49;;;;;;;11.27;8.85;;;20.40;80.90;;;;;;5017280;28;20371;-58
2023/09/23 04:52:15;;;;;;;13.25;9.23;;;20.40;81.10;;;;;;5018241;28;20029;-58
2023/09/23 04:54:42;;;;;;;13.10;9.18;;;20.40;81.00;;;;;;5017841;28;20504;-56
2023/09/23 04:57:09;;;;;;;11.48;8.93;;;20.40;81.20;;;;;;5017028;28;20034;-58
2023/09/23 04:59:34;;;;;;;12.23;8.73;;;20.40;81.20;;;;;;5015476;28;20042;-57
2023/09/23 05:02:00;;;;;;;10.00;8.70;;;20.40;81.30;;;;;;5015878;28;20026;-57
2023/09/23 05:04:26;;;;;;;12.68;9.10;;;20.40;81.60;;;;;;5015769;28;20363;-58
2023/09/23 05:06:52;;;;;;;10.80;8.32;;;20.50;81.80;;;;;;5015564;28;20048;-58
2023/09/23 05:09:17;;;;;;;12.35;8.85;;;20.50;81.90;;;;;;5015730;28;20036;-56
2023/09/23 05:11:43;;;;;;;12.75;8.88;;;20.40;81.90;;;;;;5016074;28;20057;-57
2023/09/23 05:14:08;;;;;;;13.48;9.20;;;20.50;82.20;;;;;;5017414;28;20062;-58
2023/09/23 05:16:34;;;;;;;12.93;8.98;;;20.50;82.40;;;;;;5016963;28;20077;-57
2023/09/23 05:19:00;;;;;;;12.98;9.82;;;20.50;82.70;;;;;;5016967;28;20061;-56
2023/09/23 05:21:25;;;;;;;13.48;9.98;;;20.50;83.20;;;;;;5017383;28;20021;-58
2023/09/23 05:23:51;;;;;;;13.88;10.35;;;20.50;83.40;;;;;;5017343;28;20076;-58
2023/09/23 05:26:19;;;;;;;12.10;9.90;;;20.60;83.90;;;;;;5015199;28;20473;-58
2023/09/23 05:28:45;;;;;;;16.00;10.60;;;20.60;84.30;;;;;;5015795;28;20044;-58
2023/09/23 05:31:13;;;;;;;15.13;10.75;;;20.60;84.90;;;;;;5015987;28;20030;-58
2023/09/23 05:33:40;;;;;;;11.43;10.15;;;20.60;85.10;;;;;;5017366;28;20049;-57
2023/09/23 05:36:06;;;;;;;17.42;10.93;;;20.70;85.40;;;;;;5017004;28;20109;-58
2023/09/23 05:38:36;;;;;;;16.60;12.02;;;20.70;85.80;;;;;;5016992;28;20060;-57
2023/09/23 05:41:05;;;;;;;14.02;11.52;;;20.70;85.90;;;;;;5015250;28;20406;-58
2023/09/23 05:43:31;;;;;;;13.90;11.23;;;20.80;86.20;;;;;;5014813;28;20033;-58
2023/09/23 05:45:56;;;;;;;15.43;10.90;;;20.80;85.60;;;;;;5014748;28;20053;-58
2023/09/23 05:48:22;;;;;;;12.63;9.05;;;20.80;84.80;;;;;;5015085;28;20038;-57
2023/09/23 05:50:49;;;;;;;12.40;9.27;;;20.90;83.50;;;;;;5014953;28;20549;-58
2023/09/23 05:53:15;;;;;;;15.88;8.98;;;20.90;82.60;;;;;;5014548;28;20030;-56
2023/09/23 05:55:40;;;;;;;9.48;7.93;;;20.90;81.70;;;;;;5015296;28;20088;-58
2023/09/23 05:58:06;;;;;;;12.25;8.65;;;21.00;80.70;;;;;;5014588;28;20070;-58
2023/09/23 06:00:32;;;;;;;10.27;8.00;;;21.10;79.90;;;;;;5015717;28;20056;-58
2023/09/23 06:02:57;;;;;;;11.27;7.65;;;21.40;79.10;;;;;;5016087;28;20168;-56
2023/09/23 06:05:23;;;;;;;10.75;7.70;;;21.90;77.10;;;;;;5015953;28;20497;-58
2023/09/23 06:07:49;;;;;;;11.77;7.72;;;22.50;74.70;;;;;;5015273;28;20022;-58
2023/09/23 06:10:15;;;;;;;9.90;7.00;;;23.00;72.90;;;;;;5016235;28;20057;-58
2023/09/23 06:12:41;;;;;;;8.40;6.93;;;23.40;71.10;;;;;;5015676;28;20108;-57
2023/09/23 06:15:08;;;;;;;9.43;7.45;;;23.50;70.10;;;;;;5015854;28;20034;-58
2023/09/23 06:17:36;;;;;;;11.40;6.75;;;23.50;69.90;;;;;;5015383;28;20030;-58
2023/09/23 06:20:03;;;;;;;9.40;7.32;;;23.40;69.70;;;;;;4997480;28;20034;-57
2023/09/23 06:22:28;;;;;;;9.93;7.43;;;23.20;69.90;;;;;;5015589;28;20026;-58
2023/09/23 06:24:55;;;;;;;12.05;7.80;;;23.00;70.30;;;;;;5015952;28;20093;-58
2023/09/23 06:27:20;;;;;;;16.20;8.00;;;22.90;70.80;;;;;;5015346;28;20093;-58
2023/09/23 06:29:47;;;;;;;12.05;8.27;;;22.70;71.10;;;;;;5015304;28;20030;-58
2023/09/23 06:32:15;;;;;;;9.90;8.20;;;22.60;71.50;;;;;;5015886;28;20425;-58
2023/09/23 06:34:41;;;;;;;12.10;7.65;;;22.50;71.70;;;;;;5015084;28;20030;-57
2023/09/23 06:37:06;;;;;;;9.75;7.65;;;22.40;72.00;;;;;;5015938;28;20041;-58
2023/09/23 06:39:32;;;;;;;7.97;6.97;;;22.30;72.10;;;;;;5015671;28;20138;-58
2023/09/23 06:41:58;;;;;;;10.23;7.90;;;22.20;72.00;;;;;;5016495;28;20127;-56
2023/09/23 06:44:23;;;;;;;13.65;8.35;;;22.20;72.30;;;;;;5015899;28;20022;-58
2023/09/23 06:46:50;;;;;;;13.02;7.80;;;22.20;72.60;;;;;;5015805;28;20026;-58
2023/09/23 06:49:17;;;;;;;12.85;8.27;;;22.20;72.50;;;;;;5016047;28;20030;-58
2023/09/23 06:51:42;;;;;;;10.13;8.15;;;22.20;72.50;;;;;;5016465;28;20064;-58
2023/09/23 06:54:08;;;;;;;12.45;7.90;;;22.20;72.60;;;;;;5016437;28;20061;-58
2023/09/23 06:56:37;;;;;;;10.38;7.93;;;22.20;72.80;;;;;;5016353;28;20045;-58
2023/09/23 06:59:03;;;;;;;9.80;7.70;;;22.20;72.40;;;;;;5014466;28;20498;-58
2023/09/23 07:01:29;;;;;;;10.30;7.93;;;22.20;72.20;;;;;;5014382;28;20037;-57
2023/09/23 07:03:55;;;;;;;11.63;7.68;;;22.30;72.40;;;;;;5014181;28;20034;-57
2023/09/23 07:06:21;;;;;;;8.95;7.65;;;22.30;72.50;;;;;;5014523;28;20050;-58
2023/09/23 07:08:46;;;;;;;10.93;8.18;;;22.30;72.70;;;;;;5014174;28;20033;-57
2023/09/23 07:11:13;;;;;;;10.00;7.90;;;22.40;72.50;;;;;;5014679;28;20096;-57
2023/09/23 07:13:39;;;;;;;9.13;8.23;;;22.40;72.50;;;;;;5018972;28;20092;-58
2023/09/23 07:16:05;;;;;;;11.93;7.70;;;22.40;72.50;;;;;;5019442;28;20030;-57
2023/09/23 07:18:31;;;;;;;11.40;7.65;;;22.40;72.40;;;;;;5019223;28;20052;-58
2023/09/23 07:20:57;;;;;;;9.32;7.38;;;22.50;72.50;;;;;;5018728;28;20113;-58
2023/09/23 07:23:23;;;;;;;11.23;8.05;;;22.50;72.90;;;;;;5018982;28;20025;-58
2023/09/23 07:25:49;;;;;;;10.10;7.85;;;22.50;73.10;;;;;;5019059;28;20024;-58
2023/09/23 07:28:14;;;;;;;9.75;8.35;;;22.60;73.10;;;;;;5018633;28;20553;-58
2023/09/23 07:30:40;;;;;;;12.70;9.38;;;22.60;74.00;;;;;;5018469;28;20057;-59
2023/09/23 07:33:06;;;;;;;13.07;8.98;;;22.60;74.80;;;;;;5017863;28;20045;-58
2023/09/23 07:35:32;;;;;;;12.55;8.95;;;22.70;75.20;;;;;;5017685;28;20542;-58
2023/09/23 07:38:02;;;;;;;12.73;9.07;;;22.70;75.50;;;;;;5018108;28;20134;-56
2023/09/23 07:40:31;;;;;;;14.43;9.20;;;22.70;75.70;;;;;;5017635;28;20033;-59
2023/09/23 07:42:57;;;;;;;11.93;8.85;;;22.70;75.60;;;;;;5018193;28;20063;-58
2023/09/23 07:45:23;;;;;;;10.95;8.65;;;22.70;75.70;;;;;;5017735;28;20056;-58
2023/09/23 07:47:49;;;;;;;10.50;8.85;;;22.70;75.90;;;;;;5017442;28;20026;-58
2023/09/23 07:50:15;;;;;;;10.57;8.98;;;22.70;76.40;;;;;;5017548;28;20029;-58
2023/09/23 07:52:41;;;;;;;15.20;9.40;;;22.80;76.40;;;;;;5017350;28;20034;-58
2023/09/23 07:55:07;;;;;;;10.63;8.77;;;22.70;76.30;;;;;;5018275;28;20026;-58
2023/09/23 07:57:33;;;;;;;11.18;9.35;;;22.70;76.50;;;;;;4989630;28;20499;-58
2023/09/23 07:59:59;;;;;;;11.00;9.13;;;22.70;76.80;;;;;;4999451;28;20097;-58
2023/09/23 08:02:25;;;;;;;14.15;9.18;;;22.70;77.00;;;;;;5014020;28;20434;-58
2023/09/23 08:04:51;;;;;;;10.75;8.85;;;22.70;77.10;;;;;;5016577;28;20137;-58
2023/09/23 08:07:17;;;;;;;11.23;9.88;;;22.70;77.30;;;;;;5016774;28;20053;-58
2023/09/23 08:09:42;;;;;;;13.30;10.43;;;22.70;77.40;;;;;;5016658;28;20468;-58
2023/09/23 08:12:09;;;;;;;14.90;10.13;;;22.60;77.30;;;;;;5016845;28;20033;-58
2023/09/23 08:14:35;;;;;;;14.50;10.18;;;22.60;77.60;;;;;;5016888;28;20559;-57
2023/09/23 08:17:01;;;;;;;16.05;10.07;;;22.60;78.10;;;;;;5017140;28;20061;-58
2023/09/23 08:19:27;;;;;;;12.68;9.65;;;22.60;78.40;;;;;;5016608;28;20367;-58
2023/09/23 08:21:52;;;;;;;12.57;10.18;;;22.50;78.10;;;;;;5016640;28;20026;-57
2023/09/23 08:24:19;;;;;;;13.70;10.05;;;22.50;77.90;;;;;;5016764;28;20026;-58
2023/09/23 08:26:44;;;;;;;11.52;9.70;;;22.40;77.90;;;;;;5016674;28;20026;-57
2023/09/23 08:29:10;;;;;;;12.93;9.73;;;22.40;78.40;;;;;;5016340;28;20030;-58
2023/09/23 08:31:36;;;;;;;13.10;9.55;;;22.30;78.70;;;;;;5016281;28;20033;-58
2023/09/23 08:34:04;;;;;;;13.88;10.70;;;22.30;79.10;;;;;;5016487;28;20037;-58
2023/09/23 08:36:29;;;;;;;11.98;9.75;;;22.30;79.40;;;;;;5015962;28;20052;-58
2023/09/23 08:38:55;;;;;;;12.75;9.60;;;22.30;79.60;;;;;;5014162;28;20053;-58
2023/09/23 08:41:22;;;;;;;12.50;10.18;;;22.30;79.70;;;;;;5014289;28;20025;-58
2023/09/23 08:43:51;;;;;;;12.85;10.43;;;22.30;79.80;;;;;;5014061;28;20560;-57
2023/09/23 08:46:19;;;;;;;13.45;9.82;;;22.30;79.50;;;;;;5013436;28;20071;-58
2023/09/23 08:48:45;;;;;;;12.55;10.30;;;22.30;79.40;;;;;;5013853;28;20481;-57
2023/09/23 08:51:12;;;;;;;12.65;10.30;;;22.20;79.70;;;;;;5013770;28;20022;-58
2023/09/23 08:53:41;;;;;;;16.40;10.23;;;22.30;80.20;;;;;;5013841;28;20033;-58
2023/09/23 08:56:08;;;;;;;14.63;10.25;;;22.30;80.30;;;;;;5014304;28;20117;-58
2023/09/23 08:58:34;;;;;;;12.10;10.38;;;22.20;80.10;;;;;;5012807;28;20061;-57
2023/09/23 09:01:00;;;;;;;15.13;10.27;;;22.30;79.90;;;;;;5012045;28;20034;-58
2023/09/23 09:03:27;;;;;;;13.93;10.18;;;22.30;79.40;;;;;;5013020;28;20025;-57
2023/09/23 09:05:53;;;;;;;12.88;9.88;;;22.20;79.70;;;;;;5014260;28;20152;-57
2023/09/23 09:08:18;;;;;;;14.07;10.10;;;22.30;79.60;;;;;;5014686;28;20082;-59
2023/09/23 09:10:45;;;;;;;12.80;10.65;;;22.30;79.40;;;;;;5013876;28;20033;-57
2023/09/23 09:13:11;;;;;;;15.70;10.93;;;22.30;79.40;;;;;;5015130;28;20065;-58
2023/09/23 09:15:37;;;;;;;12.10;10.65;;;22.30;79.60;;;;;;5016132;28;20393;-58
2023/09/23 09:18:04;;;;;;;13.45;11.43;;;22.30;79.50;;;;;;5015931;28;20026;-58
2023/09/23 09:20:31;;;;;;;12.55;10.38;;;22.20;79.60;;;;;;5015851;28;20105;-58
2023/09/23 09:22:57;;;;;;;14.93;10.30;;;22.20;79.80;;;;;;5015682;28;20026;-58
2023/09/23 09:25:24;;;;;;;12.55;10.13;;;22.20;80.10;;;;;;5015512;28;20529;-57
2023/09/23 09:27:52;;;;;;;13.38;9.65;;;22.20;79.50;;;;;;5030214;28;20030;-58
2023/09/23 09:30:19;;;;;;;15.20;9.77;;;22.10;79.20;;;;;;5016266;28;20045;-58
2023/09/23 09:32:45;;;;;;;12.93;10.20;;;22.20;79.10;;;;;;5015618;28;20033;-58
2023/09/23 09:35:18;;;;;;;11.55;9.68;;;22.20;78.90;;;;;;5014541;28;20030;-58
2023/09/23 09:37:46;;;;;;;12.38;9.55;;;22.20;79.00;;;;;;5015534;28;20033;-58
2023/09/23 09:40:21;;;;;;;12.88;10.02;;;22.10;79.20;;;;;;5014906;28;20089;-58
2023/09/23 09:42:54;;;;;;;13.73;9.35;;;22.10;79.50;;;;;;5015273;28;20026;-58
2023/09/23 09:45:20;;;;;;;13.68;10.68;;;22.10;79.90;;;;;;5014893;28;20022;-57
2023/09/23 09:47:50;;;;;;;12.98;10.20;;;22.10;79.70;;;;;;5015753;28;20029;-58
2023/09/23 09:50:16;;;;;;;16.48;10.18;;;22.10;80.00;;;;;;5015219;28;20489;-56
2023/09/23 09:52:45;;;;;;;15.82;11.52;;;22.10;80.70;;;;;;5015006;28;20089;-58
2023/09/23 09:55:18;;;;;;;17.95;10.73;;;22.10;81.00;;;;;;5013682;28;20041;-58
2023/09/23 09:57:46;;;;;;;12.40;10.38;;;22.20;80.40;;;;;;5014831;28;20026;-58
2023/09/23 10:00:27;;;;;;;17.45;11.15;;;22.20;80.10;;;;;;5015571;28;20117;-57
2023/09/23 10:02:56;;;;;;;;;;;22.10;79.60;;;;;;5016289;28;20497;-58
2023/09/23 10:05:22;;;;;;;16.15;11.13;;;22.00;78.90;;;;;;5014114;28;20016;-58
2023/09/23 10:07:55;;;;;;;12.50;10.18;;;22.00;79.30;;;;;;5013314;28;20034;-57
2023/09/23 10:10:34;;;;;;;11.55;9.40;;;22.00;78.80;;;;;;5013148;28;20033;-58
2023/09/23 10:13:29;;;;;;;14.50;9.20;;;21.90;78.90;;;;;;5012785;28;20022;-57
2023/09/23 10:16:04;;;;;;;14.60;10.93;;;22.00;79.00;;;;;;5009353;28;20034;-57
2023/09/23 10:18:35;;;;;;;16.83;10.57;;;21.90;79.00;;;;;;5011019;28;20032;-58
2023/09/23 10:21:02;;;;;;;;;;;21.90;79.20;;;;;;5013979;28;20058;-58
2023/09/23 10:23:35;;;;;;;13.00;10.60;;;21.90;78.70;;;;;;5013299;28;20249;-58
2023/09/23 10:26:18;;;;;;;11.50;9.90;;;21.80;79.10;;;;;;5013082;28;20389;-58
2023/09/23 10:29:04;;;;;;;14.00;11.23;;;21.90;79.30;;;;;;5014178;28;20026;-58
2023/09/23 10:31:32;;;;;;;12.38;10.80;;;21.90;79.50;;;;;;5014528;28;20018;-58
2023/09/23 10:34:03;;;;;;;13.48;10.93;;;21.90;79.70;;;;;;5013433;28;20124;-58
2023/09/23 10:36:29;;;;;;;17.40;11.60;;;21.90;79.80;;;;;;5012548;28;20069;-58
2023/09/23 10:38:55;;;;;;;15.10;11.38;;;21.90;80.30;;;;;;5013855;28;20541;-58
2023/09/23 10:41:22;;;;;;;16.15;10.23;;;21.90;80.00;;;;;;5014511;28;20033;-58
2023/09/23 10:43:54;;;;;;;13.43;9.73;;;21.90;79.40;;;;;;5014564;28;20037;-58
2023/09/23 10:46:20;;;;;;;10.60;8.85;;;22.00;78.60;;;;;;5014159;28;20026;-57
2023/09/23 10:48:46;;;;;;;13.90;9.07;;;22.00;78.30;;;;;;5014135;28;20663;-58
2023/09/23 10:51:12;;;;;;;12.35;9.13;;;22.00;78.30;;;;;;5016580;28;20397;-58
2023/09/23 10:53:38;;;;;;;11.23;8.90;;;22.10;78.20;;;;;;5015596;28;20029;-57
2023/09/23 10:56:04;;;;;;;11.13;8.50;;;22.00;77.90;;;;;;5016209;28;20032;-57
2023/09/23 10:58:33;;;;;;;14.48;8.40;;;22.10;77.70;;;;;;5014786;28;20452;-58
2023/09/23 11:01:00;;;;;;;10.15;8.38;;;22.10;77.70;;;;;;5015697;28;20026;-58
2023/09/23 11:03:25;;;;;;;9.35;7.97;;;22.20;77.90;;;;;;5015936;28;20451;-57
2023/09/23 11:05:51;;;;;;;10.93;8.77;;;22.20;77.50;;;;;;5016258;28;20068;-57
2023/09/23 11:08:20;;;;;;;10.80;7.90;;;22.20;77.20;;;;;;5016936;28;20108;-58
2023/09/23 11:10:48;;;;;;;10.05;8.23;;;22.20;77.50;;;;;;5018310;28;20060;-57
2023/09/23 11:13:15;;;;;;;9.82;8.65;;;22.20;77.30;;;;;;5017885;28;20040;-58
2023/09/23 11:15:45;;;;;;;10.15;7.60;;;22.20;77.00;;;;;;5017663;28;20478;-58
2023/09/23 11:18:19;;;;;;;11.40;7.60;;;22.30;76.60;;;;;;5018516;28;20116;-58
2023/09/23 11:20:46;;;;;;;9.50;7.78;;;22.30;75.80;;;;;;5018004;28;20065;-58
2023/09/23 11:23:13;;;;;;;11.82;8.15;;;22.30;75.80;;;;;;5018247;28;20026;-58
2023/09/23 11:25:49;;;;;;;9.20;7.72;;;22.40;75.80;;;;;;5017357;28;20026;-58
2023/09/23 11:28:17;;;;;;;9.95;7.63;;;22.40;76.30;;;;;;5018117;28;20108;-58
2023/09/23 11:30:42;;;;;;;11.13;8.00;;;22.40;76.20;;;;;;5018012;28;20393;-58
2023/09/23 11:33:11;;;;;;;11.50;7.88;;;22.50;75.80;;;;;;5017721;28;20034;-57
2023/09/23 11:35:37;;;;;;;9.73;7.45;;;22.50;76.40;;;;;;5017315;28;20513;-58
2023/09/23 11:38:03;;;;;;;12.32;7.88;;;22.50;76.10;;;;;;5017331;28;20021;-58
2023/09/23 11:40:30;;;;;;;10.32;7.65;;;22.60;76.30;;;;;;5016826;28;20030;-57
2023/09/23 11:42:56;;;;;;;10.30;7.00;;;22.60;75.90;;;;;;5017570;28;20474;-58
2023/09/23 11:45:23;;;;;;;9.02;7.10;;;22.60;76.10;;;;;;5017052;28;20077;-56
2023/09/23 11:47:49;;;;;;;9.88;7.10;;;22.70;75.80;;;;;;5017441;28;20378;-56
2023/09/23 11:50:15;;;;;;;9.98;6.32;;;22.70;76.20;;;;;;5017184;28;20022;-57
2023/09/23 11:52:41;;;;;;;8.30;7.15;;;22.70;75.60;;;;;;5017263;28;20038;-58
2023/09/23 11:55:09;;;;;;;13.30;7.65;;;22.70;75.60;;;;;;5017218;28;20374;-58
2023/09/23 11:57:36;;;;;;;9.93;7.18;;;22.80;75.80;;;;;;5016889;28;20478;-58
2023/09/23 12:00:03;;;;;;;8.43;7.22;;;22.80;75.60;;;;;;5016330;28;20050;-58
2023/09/23 12:02:29;;;;;;;8.65;7.35;;;22.90;76.00;;;;;;5017452;28;20033;-56
2023/09/23 12:04:55;;;;;;;10.35;7.28;;;22.90;76.70;;;;;;5017438;28;20022;-57
2023/09/23 12:07:23;;;;;;;9.98;6.97;;;22.90;76.30;;;;;;5017214;28;20049;-57
2023/09/23 12:09:49;;;;;;;8.43;6.80;;;22.90;75.90;;;;;;5016792;28;20108;-56
2023/09/23 12:12:15;;;;;;;8.18;6.72;;;22.90;76.40;;;;;;5017184;28;20482;-57
2023/09/23 12:14:42;;;;;;;7.45;6.25;;;22.90;76.70;;;;;;5016902;28;20064;-57
2023/09/23 12:17:15;;;;;;;10.52;6.63;;;23.00;76.40;;;;;;5017022;28;20044;-57
2023/09/23 12:19:44;;;;;;;10.82;6.05;;;23.00;75.90;;;;;;5016848;28;20033;-57
2023/09/23 12:22:15;;;;;;;11.13;6.45;;;23.00;74.90;;;;;;5016657;28;20029;-57
2023/09/23 12:24:45;;;;;;;10.13;6.05;;;23.00;74.90;;;;;;5016301;28;20112;-56
2023/09/23 12:27:11;;;;;;;9.77;6.25;;;23.10;75.00;;;;;;5016284;28;20029;-58
2023/09/23 12:29:38;;;;;;;7.40;6.38;;;23.10;75.00;;;;;;5017041;28;20038;-58
2023/09/23 12:32:04;;;;;;;9.65;6.75;;;23.10;75.30;;;;;;5016222;28;20488;-57
2023/09/23 12:34:30;;;;;;;8.63;6.28;;;23.20;75.40;;;;;;5015990;28;20389;-57
2023/09/23 12:36:56;;;;;;;9.25;6.55;;;23.10;75.70;;;;;;5016367;28;20073;-58
2023/09/23 12:39:22;;;;;;;8.23;6.63;;;23.10;75.10;;;;;;5016267;28;20056;-58